createdAt,value
2022-09-09T00:04:28.320Z,99615.00
2022-09-09T00:09:29.587Z,99604.66
2022-09-09T00:14:46.608Z,99597.31
2022-09-09T00:19:53.513Z,99584.59
2022-09-09T00:24:55.131Z,99603.03
2022-09-09T00:30:15.039Z,99597.69
2022-09-09T00:35:18.985Z,99600.75
2022-09-09T00:40:36.536Z,99594.38
2022-09-09T00:45:43.981Z,99590.38
2022-09-09T00:51:06.484Z,99579.47
2022-09-09T00:56:20.144Z,99581.66
2022-09-09T01:01:17.465Z,99589.03
2022-09-09T01:06:23.634Z,99586.03
2022-09-09T01:11:35.999Z,99580.34
2022-09-09T01:16:33.248Z,99574.63
2022-09-09T01:21:55.354Z,99574.63
2022-09-09T01:26:57.477Z,99572.50
2022-09-09T01:31:56.938Z,99571.00
2022-09-09T01:37:10.558Z,99582.56
2022-09-09T01:42:09.996Z,99572.84
2022-09-09T01:47:07.137Z,99577.72
2022-09-09T01:52:04.036Z,99576.72
2022-09-09T01:57:13.134Z,99580.22
2022-09-09T02:02:11.045Z,99576.50
2022-09-09T02:07:16.307Z,99577.84
2022-09-09T02:12:18.257Z,99581.66
2022-09-09T02:17:20.158Z,99573.28
2022-09-09T02:22:24.660Z,99583.97
2022-09-09T02:27:22.607Z,99587.97
2022-09-09T02:32:23.213Z,99589.66
2022-09-09T02:37:22.910Z,99589.50
2022-09-09T02:42:20.019Z,99595.34
2022-09-09T02:47:25.515Z,99591.69
2022-09-09T02:52:31.388Z,99595.34
2022-09-09T02:57:31.518Z,99599.34
2022-09-09T03:02:28.121Z,99605.38
2022-09-09T03:07:24.752Z,99594.84
2022-09-09T03:12:21.570Z,99600.56
2022-09-09T03:17:18.037Z,99600.72
2022-09-09T03:22:14.635Z,99609.25
2022-09-09T03:27:11.090Z,99598.38
2022-09-09T03:32:07.657Z,99601.41
2022-09-09T03:37:04.084Z,99601.09
2022-09-09T03:42:00.448Z,99597.72
2022-09-09T03:46:57.104Z,99594.06
2022-09-09T03:51:53.404Z,99601.09
2022-09-09T03:56:49.710Z,99586.03
2022-09-09T04:01:46.528Z,99590.03
2022-09-09T04:06:42.942Z,99592.00
2022-09-09T04:11:39.254Z,99600.38
2022-09-09T04:16:38.272Z,99608.44
2022-09-09T04:21:34.705Z,99618.50
2022-09-09T04:26:31.060Z,99626.84
2022-09-09T04:31:27.492Z,99603.63
2022-09-09T04:36:23.960Z,99603.97
2022-09-09T04:41:20.303Z,99614.34
2022-09-09T04:46:19.305Z,99619.19
2022-09-09T04:51:16.359Z,99623.53
2022-09-09T04:56:17.620Z,99628.53
2022-09-09T05:01:19.642Z,99631.91
2022-09-09T05:06:18.992Z,99632.91
2022-09-09T05:11:24.347Z,99635.91
2022-09-09T05:16:21.997Z,99642.91
2022-09-09T05:21:20.172Z,99643.13
2022-09-09T05:26:20.082Z,99645.63
2022-09-09T05:31:18.674Z,99652.16
2022-09-09T05:36:21.010Z,99646.50
2022-09-09T05:41:18.373Z,99651.38
2022-09-09T05:46:17.716Z,99644.72
2022-09-09T05:51:18.309Z,99661.50
2022-09-09T05:56:19.601Z,99657.97
2022-09-09T06:01:18.971Z,99657.50
2022-09-09T06:06:23.934Z,99651.44
2022-09-09T06:11:27.323Z,99643.38
2022-09-09T06:16:26.011Z,99641.69
2022-09-09T06:21:24.829Z,99643.97
2022-09-09T06:26:22.226Z,99629.50
2022-09-09T06:31:26.905Z,99616.41
2022-09-09T06:36:31.068Z,99601.81
2022-09-09T06:41:29.763Z,99586.16
2022-09-09T06:46:28.893Z,99579.00
2022-09-09T06:51:28.028Z,99589.53
2022-09-09T06:56:25.644Z,99597.66
2022-09-09T07:01:24.898Z,99601.78
2022-09-09T07:06:27.103Z,99601.22
2022-09-09T07:11:27.772Z,99599.19
2022-09-09T07:16:25.782Z,99607.88
2022-09-09T07:21:22.553Z,99606.97
2022-09-09T07:26:21.433Z,99612.09
2022-09-09T07:31:21.449Z,99615.19
2022-09-09T07:36:24.209Z,99608.88
2022-09-09T07:41:31.179Z,99605.19
2022-09-09T07:46:27.815Z,99607.31
2022-09-09T07:51:27.736Z,99608.91
2022-09-09T07:56:24.485Z,99604.28
2022-09-09T08:01:26.757Z,99610.38
2022-09-09T08:06:23.171Z,99610.66
2022-09-09T08:11:19.560Z,99608.72
2022-09-09T08:16:22.841Z,99604.75
2022-09-09T08:21:22.324Z,99609.78
2022-09-09T08:26:24.163Z,99620.44
2022-09-09T08:36:26.651Z,99638.09
2022-09-09T08:41:40.872Z,99644.06
2022-09-09T08:46:47.856Z,99647.69
2022-09-09T08:51:44.185Z,99656.72
2022-09-09T08:56:40.470Z,99651.09
2022-09-09T09:02:13.401Z,99647.59
2022-09-09T09:07:51.620Z,99656.22
2022-09-09T09:12:48.629Z,99669.00
2022-09-09T09:17:44.976Z,99660.84
2022-09-09T09:22:52.920Z,99667.19
2022-09-09T09:28:12.827Z,99660.66
2022-09-09T09:33:27.717Z,99652.88
2022-09-09T09:43:45.497Z,99639.34
2022-09-09T09:48:41.763Z,99645.16
2022-09-09T09:53:39.786Z,99645.94
2022-09-09T09:58:45.506Z,99668.72
2022-09-09T10:03:52.720Z,99668.16
2022-09-09T10:08:49.068Z,99678.28
2022-09-09T10:14:03.880Z,99677.59
2022-09-09T10:19:20.112Z,99670.09
2022-09-09T10:24:24.198Z,99664.06
2022-09-09T10:29:58.400Z,99664.09
2022-09-09T10:35:02.822Z,99666.22
2022-09-09T10:40:27.270Z,99668.09
2022-09-09T10:45:41.419Z,99657.44
2022-09-09T10:51:03.511Z,99650.25
2022-09-09T10:56:08.534Z,99651.94
2022-09-09T11:01:17.001Z,99644.66
2022-09-09T11:06:21.152Z,99647.78
2022-09-09T11:11:30.227Z,99644.78
2022-09-09T11:16:32.159Z,99654.66
2022-09-09T11:21:38.627Z,99645.69
2022-09-09T11:26:42.574Z,99648.78
2022-09-09T11:31:53.720Z,99634.69
2022-09-09T11:37:06.255Z,99635.50
2022-09-09T11:42:17.432Z,99639.50
2022-09-09T11:47:32.402Z,99649.03
2022-09-09T11:52:42.674Z,99648.69
2022-09-09T11:57:39.851Z,99650.50
2022-09-09T12:02:37.628Z,99640.81
2022-09-09T12:07:40.007Z,99634.72
2022-09-09T12:12:43.661Z,99633.75
2022-09-09T12:17:48.940Z,99634.16
2022-09-09T12:23:20.079Z,99632.03
2022-09-09T12:28:20.832Z,99638.38
2022-09-09T12:33:20.018Z,99627.53
2022-09-09T12:38:34.965Z,99624.06
2022-09-09T12:43:31.888Z,99619.47
2022-09-09T12:48:37.529Z,99616.25
2022-09-09T12:53:38.147Z,99621.53
2022-09-09T12:58:35.790Z,99607.69
2022-09-09T13:03:34.424Z,99616.66
2022-09-09T13:08:30.830Z,99622.94
2022-09-09T13:13:30.872Z,99616.97
2022-09-09T13:18:30.774Z,99620.06
2022-09-09T13:23:31.099Z,99622.59
2022-09-09T13:28:33.639Z,99619.19
2022-09-09T13:33:38.076Z,99619.06
2022-09-09T13:38:54.092Z,99608.69
2022-09-09T13:43:52.991Z,99599.56
2022-09-09T13:48:59.569Z,99597.59
2022-09-09T13:53:55.842Z,99597.34
2022-09-09T13:58:52.128Z,99593.66
2022-09-09T14:03:48.410Z,99587.09
2022-09-09T14:08:46.811Z,99588.97
2022-09-09T14:13:43.116Z,99586.41
2022-09-09T14:18:39.877Z,99594.03
2022-09-09T14:23:36.586Z,99589.69
2022-09-09T14:33:51.793Z,99580.66
2022-09-09T14:38:49.100Z,99592.13
2022-09-09T14:43:46.698Z,99596.34
2022-09-09T14:48:44.804Z,99599.25
2022-09-09T14:53:41.564Z,99589.91
2022-09-09T14:58:41.687Z,99590.94
2022-09-09T15:03:42.079Z,99578.44
2022-09-09T15:08:42.561Z,99594.28
2022-09-09T15:13:41.149Z,99596.34
2022-09-09T15:18:37.531Z,99601.75
2022-09-09T15:23:34.447Z,99591.34
2022-09-09T15:28:33.027Z,99595.19
2022-09-09T15:33:29.986Z,99595.84
2022-09-09T15:38:26.410Z,99589.94
2022-09-09T15:43:23.112Z,99585.47
2022-09-09T15:48:19.397Z,99578.50
2022-09-09T15:53:15.719Z,99586.06
2022-09-09T15:58:13.224Z,99578.75
2022-09-09T16:03:09.502Z,99578.31
2022-09-09T16:08:05.793Z,99577.56
2022-09-09T16:13:02.861Z,99581.97
2022-09-09T16:17:59.598Z,99594.84
2022-09-09T16:22:58.199Z,99591.69
2022-09-09T16:27:54.524Z,99578.31
2022-09-09T16:32:50.796Z,99588.59
2022-09-09T16:37:47.084Z,99586.06
2022-09-09T16:42:43.398Z,99599.75
2022-09-09T16:47:39.670Z,99616.38
2022-09-09T16:52:35.932Z,99630.44
2022-09-09T16:57:32.223Z,99634.06
2022-09-09T17:02:29.709Z,99654.84
2022-09-09T17:07:26.454Z,99650.31
2022-09-09T17:12:23.101Z,99652.44
2022-09-09T17:17:31.585Z,99642.97
2022-09-09T17:22:29.612Z,99626.72
2022-09-09T17:27:25.951Z,99629.56
2022-09-09T17:32:22.244Z,99630.53
2022-09-09T17:37:18.635Z,99645.44
2022-09-09T17:42:15.671Z,99637.19
2022-09-09T17:47:11.967Z,99643.16
2022-09-09T17:52:08.250Z,99634.56
2022-09-09T17:57:04.852Z,99649.56
2022-09-09T18:02:01.821Z,99649.59
2022-09-09T18:06:59.214Z,99643.16
2022-09-09T18:11:57.733Z,99651.13
2022-09-09T18:16:54.464Z,99655.34
2022-09-09T18:21:51.432Z,99656.03
2022-09-09T18:26:49.164Z,99660.75
2022-09-09T18:31:47.560Z,99666.53
2022-09-09T18:36:46.809Z,99669.59
2022-09-09T18:41:46.304Z,99667.22
2022-09-09T18:46:43.539Z,99665.28
2022-09-09T18:51:42.748Z,99665.16
2022-09-09T18:56:39.463Z,99672.06
2022-09-09T19:01:36.374Z,99684.50
2022-09-09T19:06:34.655Z,99688.22
2022-09-09T19:11:31.078Z,99679.19
2022-09-09T19:16:30.754Z,99686.88
2022-09-09T19:21:29.604Z,99674.66
2022-09-09T19:26:28.488Z,99682.00
2022-09-09T19:31:27.873Z,99687.91
2022-09-09T19:36:27.693Z,99678.31
2022-09-09T19:41:26.628Z,99698.81
2022-09-09T19:46:23.330Z,99698.97
2022-09-09T19:51:21.992Z,99688.94
2022-09-09T19:56:20.637Z,99696.16
2022-09-09T20:01:22.981Z,99710.75
2022-09-09T20:06:21.653Z,99714.78
2022-09-09T20:11:20.387Z,99719.63
2022-09-09T20:16:22.988Z,99723.81
2022-09-09T20:21:22.212Z,99727.50
2022-09-09T20:26:21.611Z,99726.00
2022-09-09T20:31:21.610Z,99720.78
2022-09-09T20:36:26.579Z,99722.13
2022-09-09T20:41:22.977Z,99720.13
2022-09-09T20:46:21.586Z,99728.53
2022-09-09T20:51:20.258Z,99724.31
2022-09-09T20:56:16.953Z,99730.03
2022-09-09T21:01:16.389Z,99718.78
2022-09-09T21:06:14.879Z,99726.81
2022-09-09T21:11:11.683Z,99721.28
2022-09-09T21:16:11.155Z,99724.97
2022-09-09T21:21:08.007Z,99736.19
2022-09-09T21:26:05.198Z,99728.34
2022-09-09T21:31:02.271Z,99730.69
2022-09-09T21:36:06.928Z,99735.22
2022-09-09T21:41:08.757Z,99734.53
2022-09-09T21:46:09.839Z,99744.25
2022-09-09T21:51:10.267Z,99738.38
2022-09-09T21:56:10.590Z,99736.53
2022-09-09T22:01:16.276Z,99732.84
2022-09-09T22:06:15.702Z,99736.66
2022-09-09T22:11:22.147Z,99732.16
2022-09-09T22:16:20.942Z,99736.84
2022-09-09T22:21:18.332Z,99745.03
2022-09-09T22:26:15.170Z,99738.34
2022-09-09T22:31:11.727Z,99741.84
2022-09-09T22:36:08.609Z,99755.41
2022-09-09T22:41:05.905Z,99747.91
2022-09-09T22:46:03.484Z,99762.09
2022-09-09T22:51:04.520Z,99769.97
2022-09-09T22:56:03.387Z,99771.28
2022-09-09T23:01:00.251Z,99773.91
2022-09-09T23:05:58.901Z,99769.22
2022-09-09T23:10:55.793Z,99770.91
2022-09-09T23:15:55.208Z,99772.56
2022-09-09T23:21:01.031Z,99767.53
2022-09-09T23:26:02.450Z,99769.34
2022-09-09T23:30:59.422Z,99772.81
2022-09-09T23:36:00.213Z,99771.00
2022-09-09T23:40:56.899Z,99777.56
2022-09-09T23:45:53.739Z,99765.25
2022-09-09T23:50:50.629Z,99761.03
2022-09-09T23:55:46.976Z,99768.69
